ECLK1: Elk City Lake

Data processed at Thu May 23 2019 23:50


All information presented herein is the property of the government of the United States of America and may be revised or deleted at any time without prior notice.
Dissemination of this information without the expressed written consent of the Public Affairs Office, Tulsa District U.S. Army Corps of Engineers is strictly prohibited.
These data are gathered electronically and, as presented, have not undergone any form of quality control. These data are not guaranteed to be valid or correct.
Go to home page.
Go to station list.
Go to home page.

Upstream stations:

Downstream station:
Previous Day
Next Day
Current Day
    
SHEF ID:       ECLK1     Elk City Lake
STATION TYPE:  RESERVOIR
Flood Pool:  Bottom =   796.00, Top =   825.00

               PRECIP ELEVATION   STORAGE    INFLOW   RELEASE  AIR-TEMP  WIND-DIRWIND-SPEED REL-HUMID SOLAR-RAD   VOLTAGE  BAT-LOAD
                   in        ft     ac-ft       cfs       cfs         F       deg       mph         %      W/m2      volt      volt
              Ccp-Rev   Ccp-Rev   Ccp-Rev  Rev-Regi  Rev-Regi   Ccp-Rev   Ccp-Rev   Ccp-Rev   Ccp-Rev   Ccp-Rev   Ccp-Rev   Ccp-Rev
(US/Central)
05/23 00:00      0.05    824.62    256908     15434        42     68.72     25.64      4.81    100.33      0.00     13.65     12.92
05/23 01:00      0.06    824.71    258076     14492        42     67.64     14.58      4.63    100.33      0.00     13.54     12.85
05/23 02:00      0.04    824.82    259504     14178        42     66.72    322.73      2.85    100.33      0.00     13.52     12.93
05/23 03:00      0.04    824.89    260412     13615        42     66.09    337.88      4.24    100.33      0.00     13.55     12.86
05/23 04:00      0.03    824.97    261451     13428        43     66.06    310.47      3.04    100.20      0.00     13.55     12.85
05/23 05:00      0.02    825.05    262519     12304       108     65.37    330.20      3.25    100.31      0.00     13.54     12.84
05/23 06:00      0.02    825.13    263605     12784       213     65.10    334.19      5.99    100.33      0.00     13.57     12.91
05/23 07:00      0.02    825.20    264556     12642       305     64.53     14.48      6.17    100.33      0.00     13.54     12.90
05/23 08:00      0.02    825.28    265642     12453       410     64.45      2.29      5.61    100.33      3.50     13.54     12.92
05/23 09:00      0.01    825.35    266593     12221       502     64.98     20.32      5.71    100.33      6.34     13.58     12.93
05/23 10:00      0.01    825.42    267544     11658       594     65.82     15.88      5.43    100.33     33.32     13.54     12.90
05/23 11:00      0.02    825.49    268494      8971       686     67.19     28.47      5.44    100.33     42.14     13.54     12.86
05/23 12:00      0.01    825.54    269173      9037       752     68.61     12.64      4.53    100.33     66.91     13.54     12.85
05/23 13:00      0.01    825.53    269037      8446       739     73.67     21.89      2.99    100.32    409.90     13.54     12.84
05/23 14:00      0.02    825.60    269988      8506       830     77.97     76.25      3.83     99.06    311.11     13.56     12.88
05/23 15:00      0.01    825.65    270667      8566       896     81.12    147.97      4.97     84.55    348.50     13.56     12.83
05/23 16:00      0.01    825.72    271618     10089       988     82.31    168.02     10.31     72.68    420.51     13.57     12.86
05/23 17:00      0.01    825.77    272297     10162      1054     82.53    158.87     11.34     72.55    318.98     13.53     12.88
05/23 18:00      0.00    825.81    272840      9907      1106     82.71    156.55     10.82     73.36    262.21     13.56     12.86
05/23 19:00      0.00    825.88    273790      9321      1198     81.91    157.03     11.39     72.70     84.28     13.54     12.86
05/23 20:00      0.01    825.92    274334      9421      1251     81.19    151.86     10.37     72.37     59.20     13.58     12.92
05/23 21:00      0.00    825.97    275013      9889      1316     78.93    150.04      9.37     76.08      0.00     13.56     12.92
05/23 22:00      0.00    826.02    275701      9309      1395     77.63    151.51      9.12     78.71      0.00     13.37     12.91
05/23 23:00      0.00    826.07    276405      9802      1493     76.53    150.74      9.44     81.87      0.00     13.52     12.86